Time;durP1;ratioP1;P1;durP2;ratioP2;P2;SDS_P1;SDS_P2;PMS_P1;PMS_P2;Temp;Humidity;BMP_temperature;BMP_pressure;BME280_temperature;BME280_humidity;BME280_pressure;Samples;Min_cycle;Max_cycle;Signal;HPM_P1;HPM_P2
2021/11/16 00:00:06;;;;;;;59.17;30.87;;;;;;;;;;5132595;27;20284;-76
2021/11/16 00:02:33;;;;;;;60.33;31.10;;;;;;;;;;5113219;28;20240;-76
2021/11/16 00:05:00;;;;;;;58.07;30.00;;;;;;;;;;5112750;28;20286;-76
2021/11/16 00:07:27;;;;;;;56.37;30.00;;;;;;;;;;5118084;27;20251;-77
2021/11/16 00:09:54;;;;;;;54.20;28.37;;;;;;;;;;5128848;27;20281;-77
2021/11/16 00:12:22;;;;;;;54.00;30.00;;;;;;;;;;5116738;27;20285;-76
2021/11/16 00:14:50;;;;;;;61.10;31.20;;;;;;;;;;5112339;28;20739;-76
2021/11/16 00:17:17;;;;;;;59.67;30.40;;;;;;;;;;5116651;27;20280;-76
2021/11/16 00:19:48;;;;;;;58.20;30.07;;;;;;;;;;5133176;27;20272;-76
2021/11/16 00:22:18;;;;;;;63.77;32.43;;;;;;;;;;5131154;27;20199;-76
2021/11/16 00:24:56;;;;;;;61.57;31.83;;;;;;;;;;5124627;27;20708;-76
2021/11/16 00:27:23;;;;;;;67.87;34.00;;;;;;;;;;5112840;27;20223;-76
2021/11/16 00:29:52;;;;;;;66.50;33.77;;;;;;;;;;5111896;28;20285;-76
2021/11/16 00:32:19;;;;;;;64.60;32.77;;;;;;;;;;5112792;28;20284;-76
2021/11/16 00:34:46;;;;;;;71.23;35.97;;;;;;;;;;5112885;28;20296;-76
2021/11/16 00:37:13;;;;;;;70.93;33.73;;;;;;;;;;5112828;28;20284;-77
2021/11/16 00:39:40;;;;;;;66.17;35.33;;;;;;;;;;5112924;28;20233;-76
2021/11/16 00:42:08;;;;;;;64.67;34.77;;;;;;;;;;5112566;28;20255;-76
2021/11/16 00:44:35;;;;;;;62.40;33.33;;;;;;;;;;5112442;28;20287;-76
2021/11/16 00:47:04;;;;;;;63.53;34.00;;;;;;;;;;5111729;28;20223;-76
2021/11/16 00:49:31;;;;;;;58.97;32.23;;;;;;;;;;5127165;27;20289;-76
2021/11/16 00:51:58;;;;;;;65.00;31.83;;;;;;;;;;5126743;27;20237;-76
2021/11/16 00:54:25;;;;;;;65.73;34.10;;;;;;;;;;5112454;28;20296;-76
2021/11/16 00:56:53;;;;;;;67.93;34.37;;;;;;;;;;5112516;28;20289;-76
2021/11/16 00:59:20;;;;;;;69.10;33.73;;;;;;;;;;5112379;28;20276;-76
2021/11/16 01:01:47;;;;;;;61.03;29.77;;;;;;;;;;5112251;28;20281;-76
2021/11/16 01:04:16;;;;;;;58.97;28.50;;;;;;;;;;5111360;28;20617;-76
2021/11/16 01:06:45;;;;;;;57.33;29.60;;;;;;;;;;5112202;28;20283;-76
2021/11/16 01:09:12;;;;;;;60.97;31.30;;;;;;;;;;5112088;28;20197;-76
2021/11/16 01:11:39;;;;;;;62.83;31.53;;;;;;;;;;5112582;28;20232;-76
2021/11/16 01:14:07;;;;;;;58.33;31.43;;;;;;;;;;5111882;28;20304;-76
2021/11/16 01:16:34;;;;;;;59.43;31.63;;;;;;;;;;5111706;28;20233;-76
2021/11/16 01:19:02;;;;;;;54.57;30.23;;;;;;;;;;5112149;28;20269;-76
2021/11/16 01:21:30;;;;;;;53.90;27.43;;;;;;;;;;5111244;28;20204;-76
2021/11/16 01:23:58;;;;;;;51.00;28.37;;;;;;;;;;5112565;28;20240;-76
2021/11/16 01:26:25;;;;;;;55.27;29.87;;;;;;;;;;5111383;28;20233;-76
2021/11/16 01:28:54;;;;;;;57.77;29.43;;;;;;;;;;5111521;28;20233;-76
2021/11/16 01:31:21;;;;;;;58.20;30.43;;;;;;;;;;5094979;28;20193;-76
2021/11/16 01:33:54;;;;;;;55.60;30.40;;;;;;;;;;5112452;28;20293;-76
2021/11/16 01:36:21;;;;;;;58.07;32.77;;;;;;;;;;5111934;28;20201;-76
2021/11/16 01:38:51;;;;;;;62.90;32.53;;;;;;;;;;5112264;28;20198;-76
2021/11/16 01:41:19;;;;;;;61.57;32.10;;;;;;;;;;5111928;28;20200;-76
2021/11/16 01:43:46;;;;;;;63.97;32.10;;;;;;;;;;5120490;27;20288;-76
2021/11/16 01:46:16;;;;;;;64.10;32.53;;;;;;;;;;5115839;28;20198;-76
2021/11/16 01:48:45;;;;;;;58.73;31.43;;;;;;;;;;5115343;28;20666;-76
2021/11/16 01:51:12;;;;;;;61.60;32.57;;;;;;;;;;5116028;28;20204;-76
2021/11/16 01:53:39;;;;;;;59.07;32.63;;;;;;;;;;5116550;27;20284;-76
2021/11/16 01:56:08;;;;;;;61.40;30.23;;;;;;;;;;5115249;28;20285;-77
2021/11/16 01:58:35;;;;;;;58.57;29.73;;;;;;;;;;5115462;28;20229;-76
2021/11/16 02:01:03;;;;;;;62.37;29.80;;;;;;;;;;5118341;27;20661;-76
2021/11/16 02:03:30;;;;;;;56.47;29.47;;;;;;;;;;5125798;27;20285;-76
2021/11/16 02:05:59;;;;;;;57.63;30.33;;;;;;;;;;5115394;28;20238;-76
2021/11/16 02:08:27;;;;;;;65.83;35.07;;;;;;;;;;5115288;28;20308;-77
2021/11/16 02:10:55;;;;;;;69.50;36.87;;;;;;;;;;5115067;27;20208;-76
2021/11/16 02:13:24;;;;;;;61.30;33.80;;;;;;;;;;5115162;28;20669;-76
2021/11/16 02:15:53;;;;;;;67.87;34.03;;;;;;;;;;5134663;27;20661;-76
2021/11/16 02:18:20;;;;;;;59.63;33.53;;;;;;;;;;5125411;27;20231;-76
2021/11/16 02:20:51;;;;;;;64.23;33.17;;;;;;;;;;5114245;28;20284;-76
2021/11/16 02:23:18;;;;;;;64.50;34.13;;;;;;;;;;5115234;27;20249;-76
2021/11/16 02:25:48;;;;;;;66.17;34.87;;;;;;;;;;5114936;28;20236;-76
2021/11/16 02:28:16;;;;;;;69.13;36.97;;;;;;;;;;5114168;28;20229;-76
2021/11/16 02:30:44;;;;;;;66.50;35.33;;;;;;;;;;5115084;28;20229;-76
2021/11/16 02:33:11;;;;;;;68.20;35.47;;;;;;;;;;5115237;27;20673;-76
2021/11/16 02:35:38;;;;;;;62.67;35.93;;;;;;;;;;5114555;28;20198;-76
2021/11/16 02:38:07;;;;;;;63.37;33.80;;;;;;;;;;5114784;28;20201;-76
2021/11/16 02:40:34;;;;;;;68.00;35.03;;;;;;;;;;5114594;27;20552;-76
2021/11/16 02:43:01;;;;;;;67.90;35.30;;;;;;;;;;5114513;28;20289;-76
2021/11/16 02:45:28;;;;;;;70.83;35.37;;;;;;;;;;5114602;28;20309;-77
2021/11/16 02:47:56;;;;;;;64.40;33.60;;;;;;;;;;5126229;27;20303;-77
2021/11/16 02:50:24;;;;;;;63.00;32.83;;;;;;;;;;5114141;28;20262;-76
2021/11/16 02:52:52;;;;;;;61.53;31.83;;;;;;;;;;5113825;28;20658;-76
2021/11/16 02:55:21;;;;;;;62.87;32.20;;;;;;;;;;5113083;28;20232;-76
2021/11/16 02:57:48;;;;;;;60.73;30.47;;;;;;;;;;5114386;27;20194;-76
2021/11/16 03:00:17;;;;;;;67.70;32.30;;;;;;;;;;5114176;28;20234;-76
2021/11/16 03:02:47;;;;;;;58.97;30.67;;;;;;;;;;5114407;28;20755;-76
2021/11/16 03:05:14;;;;;;;59.97;31.27;;;;;;;;;;5114721;28;20198;-76
2021/11/16 03:07:45;;;;;;;61.43;31.90;;;;;;;;;;5114216;28;20308;-76
2021/11/16 03:10:13;;;;;;;63.50;31.60;;;;;;;;;;5114354;27;20198;-76
2021/11/16 03:12:42;;;;;;;59.60;31.60;;;;;;;;;;5124474;27;20206;-76
2021/11/16 03:15:09;;;;;;;61.57;31.87;;;;;;;;;;5114005;28;20313;-76
2021/11/16 03:17:37;;;;;;;62.97;32.50;;;;;;;;;;5127078;27;20233;-76
2021/11/16 03:20:09;;;;;;;59.80;30.53;;;;;;;;;;5116455;27;20297;-76
2021/11/16 03:22:43;;;;;;;58.67;31.60;;;;;;;;;;5113807;28;20393;-76
2021/11/16 03:25:10;;;;;;;60.03;31.30;;;;;;;;;;5113885;28;20194;-76
2021/11/16 03:27:40;;;;;;;63.97;31.50;;;;;;;;;;5114198;28;20250;-76
2021/11/16 03:30:09;;;;;;;62.13;31.80;;;;;;;;;;5113356;28;20198;-76
2021/11/16 03:32:36;;;;;;;58.13;31.87;;;;;;;;;;5114110;28;20202;-76
2021/11/16 03:35:04;;;;;;;62.83;31.83;;;;;;;;;;5113816;28;20657;-76
2021/11/16 03:37:34;;;;;;;55.47;30.47;;;;;;;;;;5113096;28;20224;-76
2021/11/16 03:40:02;;;;;;;57.93;30.73;;;;;;;;;;5113453;28;20203;-76
2021/11/16 03:42:29;;;;;;;58.23;30.57;;;;;;;;;;5113508;28;20659;-76
2021/11/16 03:44:56;;;;;;;58.93;31.03;;;;;;;;;;5113920;28;20229;-76
2021/11/16 03:47:25;;;;;;;59.53;30.83;;;;;;;;;;5112767;28;20286;-76
2021/11/16 03:49:54;;;;;;;60.13;31.67;;;;;;;;;;5118384;27;20547;-76
2021/11/16 03:52:22;;;;;;;61.33;31.63;;;;;;;;;;5111660;28;20205;-76
2021/11/16 03:54:49;;;;;;;59.37;31.03;;;;;;;;;;5113417;28;20209;-76
2021/11/16 03:57:17;;;;;;;60.00;31.13;;;;;;;;;;5113099;28;20286;-76
2021/11/16 03:59:44;;;;;;;59.53;31.23;;;;;;;;;;5113165;28;20300;-76
2021/11/16 04:02:11;;;;;;;56.90;30.77;;;;;;;;;;5128059;27;20210;-76
2021/11/16 04:04:42;;;;;;;60.27;31.87;;;;;;;;;;5126907;27;20290;-76
2021/11/16 04:07:09;;;;;;;62.20;32.40;;;;;;;;;;5119556;27;20251;-76
2021/11/16 04:09:37;;;;;;;55.57;30.57;;;;;;;;;;5111649;28;20254;-76
2021/11/16 04:12:04;;;;;;;54.27;30.10;;;;;;;;;;5114746;27;20199;-77
2021/11/16 04:14:32;;;;;;;62.77;30.63;;;;;;;;;;5127864;27;20298;-77
2021/11/16 04:16:59;;;;;;;63.07;32.77;;;;;;;;;;5113073;27;20287;-76
2021/11/16 04:19:26;;;;;;;62.87;32.37;;;;;;;;;;5112589;27;20317;-77
2021/11/16 04:21:55;;;;;;;60.30;32.03;;;;;;;;;;5112688;28;20241;-76
2021/11/16 04:24:22;;;;;;;64.43;32.53;;;;;;;;;;5112482;28;20255;-76
2021/11/16 04:26:49;;;;;;;60.63;33.30;;;;;;;;;;5112597;28;20232;-76
2021/11/16 04:29:16;;;;;;;67.30;35.27;;;;;;;;;;5112720;28;20322;-76
2021/11/16 04:31:44;;;;;;;66.30;33.83;;;;;;;;;;5112181;28;20624;-76
2021/11/16 04:34:12;;;;;;;75.80;36.77;;;;;;;;;;5112592;28;20190;-76
2021/11/16 04:36:39;;;;;;;65.37;35.00;;;;;;;;;;5111802;28;20195;-76
2021/11/16 04:39:07;;;;;;;65.07;32.57;;;;;;;;;;5112618;28;20233;-77
2021/11/16 04:41:36;;;;;;;60.93;32.03;;;;;;;;;;5112307;28;20589;-76
2021/11/16 04:44:06;;;;;;;66.10;31.67;;;;;;;;;;5112708;28;20200;-76
2021/11/16 04:46:33;;;;;;;62.27;33.27;;;;;;;;;;5116678;27;20232;-76
2021/11/16 04:49:04;;;;;;;62.90;32.33;;;;;;;;;;5115854;27;20303;-76
2021/11/16 04:52:01;;;;;;;68.07;34.77;;;;;;;;;;5111748;28;20233;-76
2021/11/16 04:54:50;;;;;;;59.27;31.83;;;;;;;;;;5112556;28;20238;-77
2021/11/16 05:02:48;;;;;;;59.63;32.80;;;;;;;;;;4950904;29;20204;-76
2021/11/16 05:05:17;;;;;;;58.50;32.27;;;;;;;;;;4951298;28;20205;-76
2021/11/16 05:07:47;;;;;;;67.37;32.97;;;;;;;;;;4951154;28;20696;-76
2021/11/16 05:10:16;;;;;;;59.63;32.07;;;;;;;;;;4951426;28;20211;-76
2021/11/16 05:12:43;;;;;;;59.23;31.33;;;;;;;;;;4951449;28;20937;-77
2021/11/16 05:15:13;;;;;;;61.63;32.37;;;;;;;;;;4951349;29;20615;-76
2021/11/16 05:17:40;;;;;;;60.80;32.83;;;;;;;;;;4953245;28;20202;-77
2021/11/16 05:20:08;;;;;;;62.00;35.63;;;;;;;;;;4954857;28;20300;-76
2021/11/16 05:22:35;;;;;;;60.70;32.97;;;;;;;;;;4955388;29;20218;-76
2021/11/16 05:25:02;;;;;;;63.73;34.10;;;;;;;;;;4972706;28;20735;-76
2021/11/16 05:27:31;;;;;;;63.53;34.60;;;;;;;;;;4974406;28;20209;-76
2021/11/16 05:29:58;;;;;;;63.27;33.83;;;;;;;;;;4974113;28;20228;-76
2021/11/16 05:32:25;;;;;;;64.60;34.23;;;;;;;;;;4965423;28;20289;-77
2021/11/16 05:34:52;;;;;;;65.17;33.37;;;;;;;;;;4954645;28;20236;-77
2021/11/16 05:37:19;;;;;;;65.03;34.43;;;;;;;;;;5021859;28;20275;-77
2021/11/16 05:39:46;;;;;;;63.23;34.13;;;;;;;;;;5083979;28;20291;-76
2021/11/16 05:42:14;;;;;;;64.87;34.13;;;;;;;;;;5118230;27;20284;-76
2021/11/16 05:44:42;;;;;;;67.87;34.17;;;;;;;;;;5115539;28;20283;-76
2021/11/16 05:47:09;;;;;;;68.83;34.83;;;;;;;;;;5115022;28;20702;-76
2021/11/16 05:49:37;;;;;;;68.80;34.40;;;;;;;;;;5119256;27;20215;-77
2021/11/16 05:52:05;;;;;;;65.80;35.07;;;;;;;;;;5136331;27;20283;-77
2021/11/16 05:54:33;;;;;;;64.20;33.93;;;;;;;;;;5136742;27;20193;-77
2021/11/16 05:57:01;;;;;;;71.60;35.57;;;;;;;;;;5136058;27;20225;-78
2021/11/16 05:59:33;;;;;;;61.27;33.27;;;;;;;;;;5117270;27;20622;-76
2021/11/16 06:02:02;;;;;;;68.50;33.23;;;;;;;;;;5114488;28;20204;-77
2021/11/16 06:04:29;;;;;;;67.97;34.67;;;;;;;;;;5115151;28;20271;-76
2021/11/16 06:06:57;;;;;;;63.30;33.60;;;;;;;;;;5115792;28;20211;-75
2021/11/16 06:09:26;;;;;;;64.90;31.93;;;;;;;;;;5114229;27;20746;-76
2021/11/16 06:11:54;;;;;;;65.20;33.07;;;;;;;;;;5115079;28;20206;-76
2021/11/16 06:14:21;;;;;;;71.87;34.67;;;;;;;;;;5114817;28;20231;-76
2021/11/16 06:16:49;;;;;;;64.97;32.83;;;;;;;;;;5115020;27;20287;-76
2021/11/16 06:19:19;;;;;;;62.07;32.50;;;;;;;;;;5113922;27;20317;-76
2021/11/16 06:21:47;;;;;;;70.93;33.10;;;;;;;;;;5114375;28;20232;-76
2021/11/16 06:24:14;;;;;;;67.90;33.30;;;;;;;;;;5114233;27;20644;-76
2021/11/16 06:26:41;;;;;;;60.70;32.27;;;;;;;;;;5110917;28;20288;-76
2021/11/16 06:29:09;;;;;;;63.17;33.13;;;;;;;;;;5111276;28;20314;-76
2021/11/16 06:31:36;;;;;;;63.03;31.80;;;;;;;;;;5120044;27;20206;-76
2021/11/16 06:34:05;;;;;;;63.20;32.40;;;;;;;;;;5114842;27;20229;-76
2021/11/16 06:36:36;;;;;;;65.13;35.70;;;;;;;;;;5117856;27;20211;-76
2021/11/16 06:39:04;;;;;;;65.33;34.97;;;;;;;;;;5112672;28;20403;-76
2021/11/16 06:41:32;;;;;;;67.13;34.43;;;;;;;;;;5113485;28;20295;-76
2021/11/16 06:43:59;;;;;;;61.77;34.80;;;;;;;;;;5113965;28;20227;-75
2021/11/16 06:46:26;;;;;;;57.90;31.77;;;;;;;;;;5113371;27;20295;-77
2021/11/16 06:48:54;;;;;;;56.63;31.40;;;;;;;;;;5114044;28;20215;-77
2021/11/16 06:51:22;;;;;;;56.23;31.00;;;;;;;;;;5114532;28;20205;-76
2021/11/16 06:53:50;;;;;;;58.60;30.40;;;;;;;;;;5113511;28;20579;-76
2021/11/16 06:56:17;;;;;;;63.67;29.77;;;;;;;;;;5114506;28;20239;-77
2021/11/16 06:58:44;;;;;;;53.47;28.73;;;;;;;;;;5114176;28;20240;-76
2021/11/16 07:01:12;;;;;;;55.57;28.43;;;;;;;;;;5114257;28;20288;-76
2021/11/16 07:03:39;;;;;;;59.40;29.93;;;;;;;;;;5114327;27;20231;-77
2021/11/16 07:06:06;;;;;;;55.50;29.83;;;;;;;;;;5113902;27;20291;-76
2021/11/16 07:08:35;;;;;;;56.13;29.77;;;;;;;;;;5114094;28;20221;-77
2021/11/16 07:11:12;;;;;;;56.97;29.67;;;;;;;;;;5122765;27;20199;-76
2021/11/16 07:13:55;;;;;;;58.83;30.90;;;;;;;;;;5135011;27;20342;-76
2021/11/16 07:16:23;;;;;;;59.23;31.07;;;;;;;;;;5134550;27;20319;-76
2021/11/16 07:18:51;;;;;;;61.87;31.67;;;;;;;;;;5134327;27;20323;-76
2021/11/16 07:21:19;;;;;;;64.83;32.33;;;;;;;;;;5132835;27;20236;-76
2021/11/16 07:23:46;;;;;;;58.60;30.30;;;;;;;;;;5119560;27;20287;-76
2021/11/16 07:26:15;;;;;;;58.27;30.83;;;;;;;;;;5117482;27;20212;-76
2021/11/16 07:28:48;;;;;;;63.23;30.67;;;;;;;;;;5123788;27;20220;-76
2021/11/16 07:31:17;;;;;;;56.77;30.37;;;;;;;;;;5113451;28;20209;-76
2021/11/16 07:33:44;;;;;;;54.70;28.03;;;;;;;;;;5113907;28;20215;-76
2021/11/16 07:36:15;;;;;;;55.63;29.53;;;;;;;;;;5113198;28;20574;-76
2021/11/16 07:38:43;;;;;;;56.80;30.97;;;;;;;;;;5113583;28;20197;-75
2021/11/16 07:41:10;;;;;;;56.10;30.50;;;;;;;;;;5128898;27;20204;-77
2021/11/16 07:43:38;;;;;;;58.37;30.63;;;;;;;;;;5114665;27;20197;-77
2021/11/16 07:46:06;;;;;;;56.93;30.40;;;;;;;;;;5113079;28;20201;-76
2021/11/16 07:48:33;;;;;;;56.20;29.67;;;;;;;;;;5113500;28;20196;-77
2021/11/16 07:51:01;;;;;;;57.57;31.00;;;;;;;;;;5113420;28;20648;-76
2021/11/16 07:53:30;;;;;;;62.77;32.13;;;;;;;;;;5124917;27;20223;-76
2021/11/16 07:55:59;;;;;;;56.50;31.43;;;;;;;;;;5129678;27;20547;-76
2021/11/16 07:58:30;;;;;;;50.53;28.83;;;;;;;;;;5112802;28;20295;-76
2021/11/16 08:01:01;;;;;;;73.53;42.13;;;;;;;;;;5113477;28;20269;-76
2021/11/16 08:03:28;;;;;;;61.40;35.97;;;;;;;;;;5113296;28;20201;-76
2021/11/16 08:06:00;;;;;;;51.07;29.07;;;;;;;;;;5113589;28;20233;-76
2021/11/16 08:08:50;;;;;;;51.00;28.97;;;;;;;;;;5113279;27;20638;-76
2021/11/16 08:11:21;;;;;;;54.13;28.57;;;;;;;;;;5112913;28;20224;-76
2021/11/16 08:13:52;;;;;;;55.40;29.80;;;;;;;;;;5113083;28;20625;-76
2021/11/16 08:16:21;;;;;;;57.77;30.40;;;;;;;;;;5112681;28;20292;-76
2021/11/16 08:18:50;;;;;;;55.93;29.80;;;;;;;;;;5112788;28;20236;-77
2021/11/16 08:21:18;;;;;;;59.17;30.13;;;;;;;;;;5112557;28;20202;-76
2021/11/16 08:23:46;;;;;;;55.73;29.17;;;;;;;;;;5112200;28;20655;-76
2021/11/16 08:26:14;;;;;;;58.53;30.97;;;;;;;;;;5112546;28;20284;-76
2021/11/16 08:28:41;;;;;;;56.93;30.90;;;;;;;;;;5112443;28;20287;-76
2021/11/16 08:31:10;;;;;;;58.17;31.07;;;;;;;;;;5112658;28;20250;-77
2021/11/16 08:33:39;;;;;;;57.07;31.93;;;;;;;;;;5112704;28;20721;-77
2021/11/16 08:36:06;;;;;;;58.40;30.87;;;;;;;;;;5112679;28;20664;-76
2021/11/16 08:38:34;;;;;;;55.83;30.93;;;;;;;;;;5112836;28;20587;-77
2021/11/16 08:41:01;;;;;;;53.90;31.87;;;;;;;;;;5112647;28;20232;-76
2021/11/16 08:43:36;;;;;;;50.53;29.80;;;;;;;;;;5111681;28;20281;-76
2021/11/16 08:46:04;;;;;;;51.20;29.17;;;;;;;;;;5112616;28;20197;-77
2021/11/16 08:48:35;;;;;;;55.37;31.80;;;;;;;;;;5112509;28;20197;-77
2021/11/16 08:51:08;;;;;;;54.43;30.67;;;;;;;;;;5112062;28;20314;-77
2021/11/16 08:53:37;;;;;;;55.23;31.43;;;;;;;;;;5111888;28;20202;-76
2021/11/16 08:56:06;;;;;;;60.13;32.37;;;;;;;;;;5112116;28;20229;-76
2021/11/16 08:58:33;;;;;;;59.80;31.87;;;;;;;;;;5112264;28;20236;-77
2021/11/16 09:01:01;;;;;;;59.10;32.87;;;;;;;;;;5112611;28;20652;-77
2021/11/16 09:03:30;;;;;;;57.10;33.00;;;;;;;;;;5112107;28;20193;-76
2021/11/16 09:05:58;;;;;;;60.80;32.77;;;;;;;;;;5112638;28;20230;-76
2021/11/16 09:08:29;;;;;;;54.60;31.53;;;;;;;;;;5112037;28;20276;-77
2021/11/16 09:10:57;;;;;;;56.83;32.77;;;;;;;;;;5111877;28;20225;-76
2021/11/16 09:13:25;;;;;;;56.10;31.93;;;;;;;;;;5112240;28;20234;-77
2021/11/16 09:15:54;;;;;;;58.90;32.23;;;;;;;;;;5112273;28;20200;-77
2021/11/16 09:18:22;;;;;;;61.80;34.70;;;;;;;;;;5111686;28;20282;-76
2021/11/16 09:20:56;;;;;;;61.90;34.27;;;;;;;;;;5112098;28;20294;-76
2021/11/16 09:23:25;;;;;;;62.30;34.67;;;;;;;;;;5111466;28;20699;-76
2021/11/16 09:25:56;;;;;;;68.33;35.27;;;;;;;;;;5111781;28;20285;-77
2021/11/16 09:28:31;;;;;;;60.50;32.23;;;;;;;;;;5112191;28;20197;-76
2021/11/16 09:30:58;;;;;;;59.73;32.07;;;;;;;;;;5112379;28;20316;-77
2021/11/16 09:33:25;;;;;;;61.53;32.57;;;;;;;;;;5112106;28;20294;-76
2021/11/16 09:35:57;;;;;;;54.70;30.57;;;;;;;;;;5112026;28;20750;-76
2021/11/16 09:38:41;;;;;;;53.53;29.40;;;;;;;;;;5112076;28;20206;-77
2021/11/16 09:41:10;;;;;;;55.40;31.50;;;;;;;;;;5111659;28;20202;-77
2021/11/16 09:43:37;;;;;;;58.77;31.90;;;;;;;;;;5111443;28;20245;-76
2021/11/16 09:46:05;;;;;;;54.90;30.73;;;;;;;;;;5122314;28;20204;-77
2021/11/16 09:48:33;;;;;;;50.70;29.40;;;;;;;;;;5132580;28;20303;-76
2021/11/16 09:51:00;;;;;;;54.17;29.80;;;;;;;;;;5132564;28;20222;-76
2021/11/16 09:53:28;;;;;;;52.87;30.07;;;;;;;;;;5132553;28;20199;-77
2021/11/16 09:55:56;;;;;;;63.37;35.80;;;;;;;;;;5131806;28;20242;-77
2021/11/16 09:58:26;;;;;;;57.70;34.00;;;;;;;;;;5132530;28;20197;-77
2021/11/16 10:00:54;;;;;;;58.97;33.80;;;;;;;;;;5132490;28;20199;-76
2021/11/16 10:03:22;;;;;;;49.83;30.40;;;;;;;;;;5133470;27;20288;-77
2021/11/16 10:05:53;;;;;;;52.57;30.80;;;;;;;;;;5135691;27;20675;-76
2021/11/16 10:08:20;;;;;;;50.97;28.80;;;;;;;;;;5135434;27;20202;-77
2021/11/16 10:10:48;;;;;;;49.33;29.00;;;;;;;;;;5129879;27;20308;-77
2021/11/16 10:13:16;;;;;;;49.73;28.40;;;;;;;;;;5115476;28;20235;-77
2021/11/16 10:15:45;;;;;;;47.33;27.53;;;;;;;;;;5120476;27;20292;-77
2021/11/16 10:18:14;;;;;;;44.27;26.60;;;;;;;;;;5115178;27;20658;-77
2021/11/16 10:20:43;;;;;;;47.33;28.07;;;;;;;;;;5114891;28;20565;-77
2021/11/16 10:23:12;;;;;;;48.43;27.33;;;;;;;;;;5114730;28;20235;-77
2021/11/16 10:25:43;;;;;;;46.67;27.43;;;;;;;;;;5114882;27;20281;-77
2021/11/16 10:28:12;;;;;;;48.30;28.20;;;;;;;;;;5115313;28;20209;-77
2021/11/16 10:30:39;;;;;;;49.17;28.37;;;;;;;;;;5115026;28;20661;-77
2021/11/16 10:33:09;;;;;;;44.03;26.40;;;;;;;;;;5114852;28;20247;-77
2021/11/16 10:35:38;;;;;;;42.40;26.20;;;;;;;;;;5115330;28;20209;-77
2021/11/16 10:38:08;;;;;;;45.40;26.23;;;;;;;;;;5114307;28;20197;-77
2021/11/16 10:40:36;;;;;;;39.93;23.87;;;;;;;;;;5115181;28;20269;-77
2021/11/16 10:43:04;;;;;;;43.70;25.33;;;;;;;;;;5114442;28;20304;-77
2021/11/16 10:45:32;;;;;;;41.93;24.93;;;;;;;;;;5114644;28;20280;-77
2021/11/16 10:48:00;;;;;;;44.53;26.60;;;;;;;;;;5114778;28;20305;-76
2021/11/16 10:50:30;;;;;;;42.17;25.20;;;;;;;;;;5114473;28;20319;-76
2021/11/16 10:52:59;;;;;;;44.63;26.50;;;;;;;;;;5114215;28;20209;-77
2021/11/16 10:55:34;;;;;;;46.70;26.67;;;;;;;;;;5114799;28;20209;-77
2021/11/16 10:58:05;;;;;;;44.73;26.63;;;;;;;;;;5114043;28;20304;-77
2021/11/16 11:00:33;;;;;;;55.57;31.43;;;;;;;;;;5114546;28;20201;-77
2021/11/16 11:03:15;;;;;;;46.60;27.97;;;;;;;;;;5114175;28;20622;-77
2021/11/16 11:05:44;;;;;;;43.63;27.23;;;;;;;;;;5114493;28;20208;-77
2021/11/16 11:08:11;;;;;;;50.20;28.57;;;;;;;;;;5113383;28;20197;-77
2021/11/16 11:10:44;;;;;;;47.47;28.37;;;;;;;;;;5114115;28;20270;-77
2021/11/16 11:13:21;;;;;;;42.67;26.27;;;;;;;;;;5114049;28;20833;-76
2021/11/16 11:15:49;;;;;;;49.40;29.43;;;;;;;;;;5113368;28;20231;-77
2021/11/16 11:18:28;;;;;;;48.77;28.07;;;;;;;;;;5114021;28;20236;-77
2021/11/16 11:20:58;;;;;;;44.03;27.10;;;;;;;;;;5114106;28;20204;-77
2021/11/16 11:23:33;;;;;;;43.20;26.57;;;;;;;;;;5113372;28;20205;-77
2021/11/16 11:26:23;;;;;;;44.30;26.63;;;;;;;;;;5113864;28;20262;-77
2021/11/16 11:29:13;;;;;;;43.57;25.93;;;;;;;;;;5114019;28;20630;-77
2021/11/16 11:31:41;;;;;;;41.80;27.53;;;;;;;;;;5093672;28;20222;-77
2021/11/16 11:34:08;;;;;;;49.77;28.40;;;;;;;;;;5093148;28;20202;-77
2021/11/16 11:36:36;;;;;;;53.27;31.40;;;;;;;;;;5093075;28;20237;-77
2021/11/16 11:39:15;;;;;;;45.50;28.87;;;;;;;;;;5093271;28;20285;-77
2021/11/16 11:41:48;;;;;;;45.80;28.33;;;;;;;;;;5118916;27;20276;-77
2021/11/16 11:44:17;;;;;;;44.90;27.70;;;;;;;;;;5134143;27;20614;-77
2021/11/16 11:46:46;;;;;;;50.40;28.40;;;;;;;;;;5093318;28;20567;-77
2021/11/16 11:49:13;;;;;;;46.67;29.23;;;;;;;;;;5093215;28;20285;-76
2021/11/16 11:51:43;;;;;;;50.00;29.93;;;;;;;;;;5092818;28;20697;-77
2021/11/16 11:54:10;;;;;;;43.63;27.60;;;;;;;;;;5105002;28;20193;-77
2021/11/16 11:56:38;;;;;;;49.57;29.00;;;;;;;;;;5113191;28;20288;-77
2021/11/16 11:59:05;;;;;;;49.70;29.87;;;;;;;;;;5113303;28;20229;-77
2021/11/16 12:01:32;;;;;;;46.90;29.23;;;;;;;;;;5132627;27;20280;-78
2021/11/16 12:04:00;;;;;;;42.73;26.67;;;;;;;;;;5133745;27;20239;-77
2021/11/16 12:06:29;;;;;;;51.27;29.80;;;;;;;;;;5133331;27;20204;-77
2021/11/16 12:08:59;;;;;;;52.63;30.40;;;;;;;;;;5133633;27;20202;-77
2021/11/16 12:11:26;;;;;;;55.67;32.07;;;;;;;;;;5133586;27;20278;-78
2021/11/16 12:13:54;;;;;;;46.40;28.97;;;;;;;;;;5133500;27;20256;-77
2021/11/16 12:16:29;;;;;;;50.80;30.53;;;;;;;;;;5133635;27;20235;-77
2021/11/16 12:19:04;;;;;;;45.90;28.30;;;;;;;;;;5133017;27;20327;-77
2021/11/16 12:21:33;;;;;;;47.60;28.83;;;;;;;;;;5133355;27;20256;-77
2021/11/16 12:24:02;;;;;;;49.57;28.87;;;;;;;;;;5118258;27;20240;-77
2021/11/16 12:26:30;;;;;;;48.97;27.77;;;;;;;;;;5112529;28;20281;-77
2021/11/16 12:29:12;;;;;;;46.83;27.80;;;;;;;;;;5113008;28;20291;-77
2021/11/16 12:31:39;;;;;;;46.90;28.37;;;;;;;;;;5112754;28;20218;-77
2021/11/16 12:34:06;;;;;;;51.37;28.97;;;;;;;;;;5112317;28;20288;-77
2021/11/16 12:36:47;;;;;;;51.77;28.17;;;;;;;;;;5112655;28;20284;-77
2021/11/16 12:39:17;;;;;;;46.63;28.77;;;;;;;;;;5112797;28;20712;-77
2021/11/16 12:41:46;;;;;;;45.13;28.37;;;;;;;;;;5112570;28;20284;-77
2021/11/16 12:44:16;;;;;;;50.20;28.87;;;;;;;;;;5112870;28;20292;-77
2021/11/16 12:46:44;;;;;;;46.20;27.27;;;;;;;;;;5112307;28;20663;-77
2021/11/16 12:49:12;;;;;;;44.93;27.70;;;;;;;;;;5112006;28;20233;-77
2021/11/16 12:51:53;;;;;;;51.23;29.17;;;;;;;;;;5111888;28;20797;-77
2021/11/16 12:54:22;;;;;;;49.47;28.23;;;;;;;;;;5112481;28;20202;-77
2021/11/16 12:57:10;;;;;;;47.00;28.60;;;;;;;;;;5112456;28;20198;-77
2021/11/16 12:59:56;;;;;;;46.53;28.37;;;;;;;;;;5112125;28;20224;-77
2021/11/16 13:02:24;;;;;;;49.00;27.93;;;;;;;;;;5112160;28;20281;-77
2021/11/16 13:04:52;;;;;;;46.13;26.97;;;;;;;;;;5112349;28;20229;-77
2021/11/16 13:07:20;;;;;;;43.53;27.77;;;;;;;;;;5112144;28;20622;-77
2021/11/16 13:09:49;;;;;;;46.53;28.40;;;;;;;;;;5111901;28;20713;-77
2021/11/16 13:12:35;;;;;;;49.27;28.23;;;;;;;;;;5112587;28;20239;-77
2021/11/16 13:15:04;;;;;;;47.67;28.20;;;;;;;;;;5112226;28;20300;-77
2021/11/16 13:17:45;;;;;;;50.10;29.43;;;;;;;;;;5111667;28;20288;-77
2021/11/16 13:20:13;;;;;;;52.00;28.00;;;;;;;;;;5112065;28;20533;-77
2021/11/16 13:22:48;;;;;;;52.47;28.87;;;;;;;;;;5111691;28;20929;-77
2021/11/16 13:25:34;;;;;;;46.57;27.10;;;;;;;;;;5112075;28;20699;-77
2021/11/16 13:28:03;;;;;;;43.77;27.07;;;;;;;;;;5111920;28;20220;-77
2021/11/16 13:30:30;;;;;;;47.97;27.67;;;;;;;;;;5111544;28;20641;-77
2021/11/16 13:32:58;;;;;;;44.80;27.23;;;;;;;;;;5111646;28;20288;-77
2021/11/16 13:35:25;;;;;;;43.33;27.33;;;;;;;;;;5112197;28;20280;-77
2021/11/16 13:37:53;;;;;;;50.43;28.43;;;;;;;;;;5112584;28;20301;-77
2021/11/16 13:40:22;;;;;;;45.77;27.50;;;;;;;;;;5116012;28;20197;-77
2021/11/16 13:42:51;;;;;;;47.93;28.10;;;;;;;;;;5115928;28;20262;-76
2021/11/16 13:45:21;;;;;;;44.43;27.70;;;;;;;;;;5116051;28;20205;-77
2021/11/16 13:47:50;;;;;;;44.73;27.57;;;;;;;;;;5115478;28;20216;-77
2021/11/16 13:50:21;;;;;;;42.90;27.53;;;;;;;;;;5116063;28;20205;-77
2021/11/16 13:52:49;;;;;;;42.17;26.67;;;;;;;;;;5115787;28;20284;-77
2021/11/16 13:55:17;;;;;;;42.87;27.07;;;;;;;;;;5115415;28;20206;-77
2021/11/16 13:57:47;;;;;;;42.20;27.20;;;;;;;;;;5116026;28;20621;-77
2021/11/16 14:00:15;;;;;;;47.37;27.93;;;;;;;;;;5115690;28;20341;-77
2021/11/16 14:02:49;;;;;;;43.13;26.60;;;;;;;;;;5115633;28;20194;-77
2021/11/16 14:05:16;;;;;;;42.57;27.93;;;;;;;;;;5115809;28;20288;-77
2021/11/16 14:07:53;;;;;;;44.53;28.47;;;;;;;;;;5115657;28;20205;-77
2021/11/16 14:10:20;;;;;;;44.10;27.60;;;;;;;;;;5115937;28;20205;-77
2021/11/16 14:12:48;;;;;;;46.70;28.37;;;;;;;;;;5114762;28;20312;-77
2021/11/16 14:15:18;;;;;;;45.93;27.97;;;;;;;;;;5133280;27;20719;-77
2021/11/16 14:18:02;;;;;;;44.03;27.20;;;;;;;;;;5135872;27;20240;-77
2021/11/16 14:20:33;;;;;;;43.87;27.17;;;;;;;;;;5136349;27;20193;-77
2021/11/16 14:23:10;;;;;;;44.13;28.67;;;;;;;;;;5129166;27;20216;-77
2021/11/16 14:25:37;;;;;;;48.70;29.33;;;;;;;;;;5115245;28;20193;-76
2021/11/16 14:28:06;;;;;;;44.63;28.93;;;;;;;;;;5115444;27;20657;-77
2021/11/16 14:30:34;;;;;;;44.27;28.50;;;;;;;;;;5135576;27;20201;-76
2021/11/16 14:33:05;;;;;;;42.70;27.17;;;;;;;;;;5128061;27;20293;-77